Orchid Ace — 7JDE — position and weather

sailwx.info

Track history (hours):
 
Tides and Currents Weather Stations Pressure Air Temp Water Temp Dewpoint Dewpoint Depression Visibility Wind Speed Wind Dir Waves Ship Positions

Orchid Ace

Last reported at 2014-Aug-29 23:30 UTC. Time now 2014-Sep-01 07:27 UTC.
Position N 34°17' W 075°59'.

Length 200 m; draft 8.6 m.

Type: Cargo ship. MMSI: 432651000.

Date/timePositionNaut miles runAvg speedWind from/ knotsBaromVisibWave heightAir tempDewpointWater temp
2014-Aug-29 23:30N 34°17' W 075°59'2118.3
2014-Aug-29 22:21N 34°32' W 075°41'1416.9
2014-Aug-29 21:30N 34°43' W 075°30'12515.7
2014-Aug-29 13:32N 36°47' W 075°45'1614.5
2014-Aug-29 12:27N 36°58' W 075°60'1517.2
2014-Aug-29 11:33N 37°11' W 076°09'2019.3
2014-Aug-29 10:33N 37°30' W 076°03'7718.9
2014-Aug-29 06:28N 38°45' W 076°26'1618.2
2014-Aug-29 05:33N 39°01' W 076°23'1313.1
2014-Aug-29 04:33N 39°13' W 076°31'2 1.8
2014-Aug-29 03:33N 39°14' W 076°32'0 0.0
2014-Aug-29 02:33N 39°14' W 076°32'0 0.0
2014-Aug-29 01:33N 39°14' W 076°32'0 0.0
2014-Aug-29 00:33N 39°14' W 076°32'0 0.0
2014-Aug-28 23:33N 39°14' W 076°32'0 0.0
2014-Aug-28 22:33N 39°14' W 076°32'0 0.0
2014-Aug-28 21:33N 39°14' W 076°32'0 0.0
2014-Aug-28 20:33N 39°14' W 076°32'0 0.0
2014-Aug-28 19:33N 39°14' W 076°32'0 0.0
2014-Aug-28 18:33N 39°14' W 076°32'0 0.0
2014-Aug-28 17:33N 39°14' W 076°32'0 0.0
2014-Aug-28 16:30N 39°14' W 076°32'0 0.0
2014-Aug-28 15:33N 39°14' W 076°32'0 0.0
2014-Aug-28 14:33N 39°14' W 076°32'0 0.0
2014-Aug-28 13:33N 39°14' W 076°32'0 0.0
2014-Aug-28 12:33N 39°14' W 076°32'0 0.0
2014-Aug-28 11:33N 39°14' W 076°32'0 0.0
2014-Aug-28 10:33N 39°14' W 076°32'0 0.0
2014-Aug-28 09:33N 39°14' W 076°32'0 0.0
2014-Aug-28 08:33N 39°14' W 076°32'0 0.0
2014-Aug-28 07:33N 39°14' W 076°32'0 0.0
2014-Aug-28 06:33N 39°14' W 076°32'0 0.0
2014-Aug-28 05:33N 39°14' W 076°32'0 0.0
2014-Aug-28 04:33N 39°14' W 076°32'0 0.0
2014-Aug-28 03:33N 39°14' W 076°32'0 0.0
2014-Aug-28 02:33N 39°14' W 076°32'0 0.0
2014-Aug-28 01:33N 39°14' W 076°32'0 0.0
2014-Aug-28 00:33N 39°14' W 076°32'0 0.0
2014-Aug-27 23:33N 39°14' W 076°32'2 1.9
2014-Aug-27 22:33N 39°14' W 076°34'0 0.0
2014-Aug-27 21:33N 39°14' W 076°34'0 0.0
2014-Aug-27 20:33N 39°14' W 076°34'0 0.0
2014-Aug-27 19:33N 39°14' W 076°34'0 0.0
2014-Aug-27 18:33N 39°14' W 076°34'0 0.0
2014-Aug-27 17:33N 39°14' W 076°34'0 0.0
2014-Aug-27 16:33N 39°14' W 076°34'0 0.0
2014-Aug-27 15:33N 39°14' W 076°34'0 0.0
2014-Aug-27 14:33N 39°14' W 076°34'0 0.0
2014-Aug-27 13:30N 39°14' W 076°34'0 0.0
2014-Aug-27 12:33N 39°14' W 076°34'0 0.0
2014-Aug-27 11:33N 39°14' W 076°34'0 0.0
2014-Aug-27 10:33N 39°14' W 076°34'0 0.0
2014-Aug-27 09:33N 39°14' W 076°34'0 0.0
2014-Aug-27 08:33N 39°14' W 076°34'1 0.7
2014-Aug-27 07:34N 39°14' W 076°33'9 9.3
2014-Aug-27 06:34N 39°10' W 076°23'1110.8
2014-Aug-27 05:33N 39°18' W 076°13'1717.0
2014-Aug-27 04:34N 39°29' W 075°57'8 7.7
2014-Aug-27 03:33N 39°32' W 075°48'9 8.9
2014-Aug-27 02:33N 39°33' W 075°36'10 9.8
2014-Aug-27 01:33N 39°25' W 075°30'2019.9
2014-Aug-27 00:33N 39°09' W 075°15'1514.6
2014-Aug-26 23:33N 38°56' W 075°06'1010.5
2014-Aug-26 22:33N 38°47' W 074°59'1110.8
2014-Aug-26 21:34N 38°48' W 074°45'1515.0
2014-Aug-26 20:33N 38°48' W 074°26'1010.1
2014-Aug-26 19:34N 38°49' W 074°13'1514.9
2014-Aug-26 18:33N 38°51' W 073°54'1313.1
2014-Aug-26 17:33N 38°56' W 073°38'1 0.6
2014-Aug-26 16:33N 38°56' W 073°37'0 0.3
2014-Aug-26 15:33N 38°56' W 073°37'0 0.4
2014-Aug-26 14:33N 38°56' W 073°36'1 0.6
2014-Aug-26 13:33N 38°56' W 073°36'1 0.9
2014-Aug-26 12:33N 38°56' W 073°35'1 1.0
2014-Aug-26 11:33N 38°56' W 073°33'1 1.2
2014-Aug-26 10:33N 38°56' W 073°32'1 1.3
2014-Aug-26 09:32N 38°56' W 073°30'1 1.0
2014-Aug-26 08:33N 38°56' W 073°29'1 0.9
2014-Aug-26 07:33N 38°55' W 073°28'1 0.7
2014-Aug-26 06:30N 38°55' W 073°27'1 0.6
2014-Aug-26 05:33N 38°55' W 073°26'1 0.5
2014-Aug-26 04:33N 38°56' W 073°26'10 9.6
2014-Aug-26 03:34N 39°04' W 073°30'1514.8
2014-Aug-26 02:34N 39°18' W 073°37'1514.7
2014-Aug-26 01:34N 39°32' W 073°44'1414.5
2014-Aug-26 00:34N 39°45' W 073°51'1514.6
2014-Aug-25 23:33N 39°60' W 073°51'1914.6
2014-Aug-25 22:14N 40°19' W 073°50'812.1
2014-Aug-25 21:32N 40°28' W 073°51'1313.9
2014-Aug-25 20:33N 40°37' W 074°03'5 4.9
2014-Aug-25 19:33N 40°40' W 074°08'2 1.6
2014-Aug-25 18:32N 40°42' W 074°09'0 0.0
2014-Aug-25 17:29N 40°42' W 074°09'0 0.0
2014-Aug-25 16:32N 40°42' W 074°09'0 0.0
2014-Aug-25 15:32N 40°42' W 074°09'0 0.0
2014-Aug-25 14:32N 40°42' W 074°09'0 0.0
2014-Aug-25 13:32N 40°42' W 074°09'0 0.0
2014-Aug-25 12:32N 40°42' W 074°09'0 0.0
2014-Aug-25 11:32N 40°42' W 074°09'0 0.0
2014-Aug-25 10:32N 40°42' W 074°09'0 0.0
2014-Aug-25 09:32N 40°42' W 074°09'0 0.0
2014-Aug-25 08:32N 40°42' W 074°09'0 0.0
2014-Aug-25 07:32N 40°42' W 074°09'0 0.0
2014-Aug-25 06:32N 40°42' W 074°09'0 0.0
2014-Aug-25 05:32N 40°42' W 074°09'0 0.0
2014-Aug-25 04:32N 40°42' W 074°09'0 0.0
2014-Aug-25 03:32N 40°42' W 074°09'0 0.0
2014-Aug-25 02:32N 40°42' W 074°09'0 0.0
2014-Aug-25 01:32N 40°42' W 074°09'0 0.0
2014-Aug-25 00:32N 40°42' W 074°09'0 0.0
2014-Aug-24 23:32N 40°42' W 074°09'0 0.1
2014-Aug-24 22:33N 40°42' W 074°09'4 3.7
2014-Aug-24 21:33N 40°39' W 074°06'1111.4
2014-Aug-24 20:33N 40°30' W 073°56'10 9.5
2014-Aug-24 19:33N 40°23' W 073°47'1212.1
2014-Aug-24 18:32N 40°11' W 073°45'1717.7
2014-Aug-24 17:34N 39°54' W 073°44'1717.1
2014-Aug-24 16:33N 39°37' W 073°46'1717.0
2014-Aug-24 15:33N 39°21' W 073°56'1716.8
2014-Aug-24 14:32N 39°05' W 074°03'283 6.6
2014-Aug-22 19:34N 34°33' W 075°41'1817.7
2014-Aug-22 18:34N 34°20' W 075°56'2221.8
2014-Aug-22 17:34N 34°04' W 076°13'2120.9
2014-Aug-22 16:32N 33°48' W 076°30'1717.1
2014-Aug-22 15:34N 33°36' W 076°44'1616.1
2014-Aug-22 14:34N 33°24' W 076°57'7915.3
2014-Aug-22 09:25N 32°26' W 078°01'262 6.7
2014-Aug-20 18:33N 28°06' W 078°29'  
Track history (hours):
 
Tides and Currents Weather Stations Pressure Air Temp Water Temp Dewpoint Dewpoint Depression Visibility Wind Speed Wind Dir Waves Ship Positions

Orchid Ace

Last reported at 2014-Aug-29 23:30 UTC. Time now 2014-Sep-01 07:27 UTC.
Position N 34°17' W 075°59'.

Length 200 m; draft 8.6 m.

Type: Cargo ship. MMSI: 432651000.

Date/timePositionNaut miles runAvg speedWind from/ knotsBaromVisibWave heightAir tempDewpointWater temp
2014-Aug-29 23:30N 34°17' W 075°59'2118.3
2014-Aug-29 22:21N 34°32' W 075°41'1416.9
2014-Aug-29 21:30N 34°43' W 075°30'12515.7
2014-Aug-29 13:32N 36°47' W 075°45'1614.5
2014-Aug-29 12:27N 36°58' W 075°60'1517.2
2014-Aug-29 11:33N 37°11' W 076°09'2019.3
2014-Aug-29 10:33N 37°30' W 076°03'7718.9
2014-Aug-29 06:28N 38°45' W 076°26'1618.2
2014-Aug-29 05:33N 39°01' W 076°23'1313.1
2014-Aug-29 04:33N 39°13' W 076°31'2 1.8
2014-Aug-29 03:33N 39°14' W 076°32'0 0.0
2014-Aug-29 02:33N 39°14' W 076°32'0 0.0
2014-Aug-29 01:33N 39°14' W 076°32'0 0.0
2014-Aug-29 00:33N 39°14' W 076°32'0 0.0
2014-Aug-28 23:33N 39°14' W 076°32'0 0.0
2014-Aug-28 22:33N 39°14' W 076°32'0 0.0
2014-Aug-28 21:33N 39°14' W 076°32'0 0.0
2014-Aug-28 20:33N 39°14' W 076°32'0 0.0
2014-Aug-28 19:33N 39°14' W 076°32'0 0.0
2014-Aug-28 18:33N 39°14' W 076°32'0 0.0
2014-Aug-28 17:33N 39°14' W 076°32'0 0.0
2014-Aug-28 16:30N 39°14' W 076°32'0 0.0
2014-Aug-28 15:33N 39°14' W 076°32'0 0.0
2014-Aug-28 14:33N 39°14' W 076°32'0 0.0
2014-Aug-28 13:33N 39°14' W 076°32'0 0.0
2014-Aug-28 12:33N 39°14' W 076°32'0 0.0
2014-Aug-28 11:33N 39°14' W 076°32'0 0.0
2014-Aug-28 10:33N 39°14' W 076°32'0 0.0
2014-Aug-28 09:33N 39°14' W 076°32'0 0.0
2014-Aug-28 08:33N 39°14' W 076°32'0 0.0
2014-Aug-28 07:33N 39°14' W 076°32'0 0.0
2014-Aug-28 06:33N 39°14' W 076°32'0 0.0
2014-Aug-28 05:33N 39°14' W 076°32'0 0.0
2014-Aug-28 04:33N 39°14' W 076°32'0 0.0
2014-Aug-28 03:33N 39°14' W 076°32'0 0.0
2014-Aug-28 02:33N 39°14' W 076°32'0 0.0
2014-Aug-28 01:33N 39°14' W 076°32'0 0.0
2014-Aug-28 00:33N 39°14' W 076°32'0 0.0
2014-Aug-27 23:33N 39°14' W 076°32'2 1.9
2014-Aug-27 22:33N 39°14' W 076°34'0 0.0
2014-Aug-27 21:33N 39°14' W 076°34'0 0.0
2014-Aug-27 20:33N 39°14' W 076°34'0 0.0
2014-Aug-27 19:33N 39°14' W 076°34'0 0.0
2014-Aug-27 18:33N 39°14' W 076°34'0 0.0
2014-Aug-27 17:33N 39°14' W 076°34'0 0.0
2014-Aug-27 16:33N 39°14' W 076°34'0 0.0
2014-Aug-27 15:33N 39°14' W 076°34'0 0.0
2014-Aug-27 14:33N 39°14' W 076°34'0 0.0
2014-Aug-27 13:30N 39°14' W 076°34'0 0.0
2014-Aug-27 12:33N 39°14' W 076°34'0 0.0
2014-Aug-27 11:33N 39°14' W 076°34'0 0.0
2014-Aug-27 10:33N 39°14' W 076°34'0 0.0
2014-Aug-27 09:33N 39°14' W 076°34'0 0.0
2014-Aug-27 08:33N 39°14' W 076°34'1 0.7
2014-Aug-27 07:34N 39°14' W 076°33'9 9.3
2014-Aug-27 06:34N 39°10' W 076°23'1110.8
2014-Aug-27 05:33N 39°18' W 076°13'1717.0
2014-Aug-27 04:34N 39°29' W 075°57'8 7.7
2014-Aug-27 03:33N 39°32' W 075°48'9 8.9
2014-Aug-27 02:33N 39°33' W 075°36'10 9.8
2014-Aug-27 01:33N 39°25' W 075°30'2019.9
2014-Aug-27 00:33N 39°09' W 075°15'1514.6
2014-Aug-26 23:33N 38°56' W 075°06'1010.5
2014-Aug-26 22:33N 38°47' W 074°59'1110.8
2014-Aug-26 21:34N 38°48' W 074°45'1515.0
2014-Aug-26 20:33N 38°48' W 074°26'1010.1
2014-Aug-26 19:34N 38°49' W 074°13'1514.9
2014-Aug-26 18:33N 38°51' W 073°54'1313.1
2014-Aug-26 17:33N 38°56' W 073°38'1 0.6
2014-Aug-26 16:33N 38°56' W 073°37'0 0.3
2014-Aug-26 15:33N 38°56' W 073°37'0 0.4
2014-Aug-26 14:33N 38°56' W 073°36'1 0.6
2014-Aug-26 13:33N 38°56' W 073°36'1 0.9
2014-Aug-26 12:33N 38°56' W 073°35'1 1.0
2014-Aug-26 11:33N 38°56' W 073°33'1 1.2
2014-Aug-26 10:33N 38°56' W 073°32'1 1.3
2014-Aug-26 09:32N 38°56' W 073°30'1 1.0
2014-Aug-26 08:33N 38°56' W 073°29'1 0.9
2014-Aug-26 07:33N 38°55' W 073°28'1 0.7
2014-Aug-26 06:30N 38°55' W 073°27'1 0.6
2014-Aug-26 05:33N 38°55' W 073°26'1 0.5
2014-Aug-26 04:33N 38°56' W 073°26'10 9.6
2014-Aug-26 03:34N 39°04' W 073°30'1514.8
2014-Aug-26 02:34N 39°18' W 073°37'1514.7
2014-Aug-26 01:34N 39°32' W 073°44'1414.5
2014-Aug-26 00:34N 39°45' W 073°51'1514.6
2014-Aug-25 23:33N 39°60' W 073°51'1914.6
2014-Aug-25 22:14N 40°19' W 073°50'812.1
2014-Aug-25 21:32N 40°28' W 073°51'1313.9
2014-Aug-25 20:33N 40°37' W 074°03'5 4.9
2014-Aug-25 19:33N 40°40' W 074°08'2 1.6
2014-Aug-25 18:32N 40°42' W 074°09'0 0.0
2014-Aug-25 17:29N 40°42' W 074°09'0 0.0
2014-Aug-25 16:32N 40°42' W 074°09'0 0.0
2014-Aug-25 15:32N 40°42' W 074°09'0 0.0
2014-Aug-25 14:32N 40°42' W 074°09'0 0.0
2014-Aug-25 13:32N 40°42' W 074°09'0 0.0
2014-Aug-25 12:32N 40°42' W 074°09'0 0.0
2014-Aug-25 11:32N 40°42' W 074°09'0 0.0
2014-Aug-25 10:32N 40°42' W 074°09'0 0.0
2014-Aug-25 09:32N 40°42' W 074°09'0 0.0
2014-Aug-25 08:32N 40°42' W 074°09'0 0.0
2014-Aug-25 07:32N 40°42' W 074°09'0 0.0
2014-Aug-25 06:32N 40°42' W 074°09'0 0.0
2014-Aug-25 05:32N 40°42' W 074°09'0 0.0
2014-Aug-25 04:32N 40°42' W 074°09'0 0.0
2014-Aug-25 03:32N 40°42' W 074°09'0 0.0
2014-Aug-25 02:32N 40°42' W 074°09'0 0.0
2014-Aug-25 01:32N 40°42' W 074°09'0 0.0
2014-Aug-25 00:32N 40°42' W 074°09'0 0.0
2014-Aug-24 23:32N 40°42' W 074°09'0 0.1
2014-Aug-24 22:33N 40°42' W 074°09'4 3.7
2014-Aug-24 21:33N 40°39' W 074°06'1111.4
2014-Aug-24 20:33N 40°30' W 073°56'10 9.5
2014-Aug-24 19:33N 40°23' W 073°47'1212.1
2014-Aug-24 18:32N 40°11' W 073°45'1717.7
2014-Aug-24 17:34N 39°54' W 073°44'1717.1
2014-Aug-24 16:33N 39°37' W 073°46'1717.0
2014-Aug-24 15:33N 39°21' W 073°56'1716.8
2014-Aug-24 14:32N 39°05' W 074°03'283 6.6
2014-Aug-22 19:34N 34°33' W 075°41'1817.7
2014-Aug-22 18:34N 34°20' W 075°56'2221.8
2014-Aug-22 17:34N 34°04' W 076°13'2120.9
2014-Aug-22 16:32N 33°48' W 076°30'1717.1
2014-Aug-22 15:34N 33°36' W 076°44'1616.1
2014-Aug-22 14:34N 33°24' W 076°57'7915.3
2014-Aug-22 09:25N 32°26' W 078°01'262 6.7
2014-Aug-20 18:33N 28°06' W 078°29'  

Dump ship's entire track history